createdAt,value
2022-11-01T00:02:17.438Z,64.28
2022-11-01T00:04:44.787Z,68.90
2022-11-01T00:07:12.131Z,64.15
2022-11-01T00:09:39.387Z,66.10
2022-11-01T00:12:06.860Z,62.88
2022-11-01T00:14:34.083Z,68.47
2022-11-01T00:17:01.611Z,72.72
2022-11-01T00:19:28.825Z,66.32
2022-11-01T00:21:57.034Z,61.97
2022-11-01T00:24:25.222Z,66.43
2022-11-01T00:26:52.711Z,63.90
2022-11-01T00:29:19.952Z,61.10
2022-11-01T00:31:47.332Z,71.05
2022-11-01T00:34:16.376Z,58.70
2022-11-01T00:36:44.496Z,64.22
2022-11-01T00:39:16.098Z,66.25
2022-11-01T00:41:43.676Z,62.35
2022-11-01T00:44:10.903Z,70.75
2022-11-01T00:46:38.445Z,65.03
2022-11-01T00:49:05.725Z,60.80
2022-11-01T00:51:33.138Z,70.22
2022-11-01T00:54:00.288Z,64.13
2022-11-01T00:56:27.742Z,67.35
2022-11-01T00:58:54.942Z,66.93
2022-11-01T01:01:22.656Z,64.28
2022-11-01T01:03:50.023Z,60.60
2022-11-01T01:06:17.527Z,59.83
2022-11-01T01:08:44.720Z,64.05
2022-11-01T01:11:12.492Z,63.75
2022-11-01T01:13:39.646Z,59.95
2022-11-01T01:16:12.495Z,58.47
2022-11-01T01:18:40.095Z,62.78
2022-11-01T01:21:08.004Z,67.03
2022-11-01T01:23:35.852Z,54.75
2022-11-01T01:26:09.211Z,58.75
2022-11-01T01:28:41.781Z,55.65
2022-11-01T01:31:14.162Z,55.35
2022-11-01T01:33:41.796Z,56.28
2022-11-01T01:36:09.627Z,58.47
2022-11-01T01:38:37.252Z,51.55
2022-11-01T01:41:24.042Z,54.70
2022-11-01T01:43:51.380Z,54.05
2022-11-01T01:46:18.816Z,50.83
2022-11-01T01:48:55.449Z,47.60
2022-11-01T01:51:28.935Z,40.28
2022-11-01T01:53:58.899Z,47.15
2022-11-01T01:56:37.323Z,39.65
2022-11-01T01:59:10.187Z,39.45
2022-11-01T02:01:41.212Z,57.45
2022-11-01T02:04:43.707Z,43.22
2022-11-01T02:07:12.156Z,45.22
2022-11-01T02:09:40.191Z,39.13
2022-11-01T02:12:10.801Z,37.47
2022-11-01T02:14:42.302Z,52.45
2022-11-01T02:17:46.280Z,40.83
2022-11-01T02:20:59.491Z,42.38
2022-11-01T02:23:58.850Z,69.32
2022-11-01T02:27:01.219Z,54.28
2022-11-01T02:30:06.233Z,38.53
2022-11-01T02:33:19.323Z,40.63
2022-11-01T02:35:55.698Z,48.20
2022-11-01T02:38:46.435Z,53.72
2022-11-01T02:41:20.740Z,46.05
2022-11-01T02:44:10.751Z,73.32
2022-11-01T02:47:01.814Z,48.42
2022-11-01T02:49:37.062Z,51.47
2022-11-01T02:52:10.465Z,50.08
2022-11-01T02:54:57.132Z,47.50
2022-11-01T02:57:49.316Z,49.20
2022-11-01T03:00:35.829Z,45.17
2022-11-01T03:03:24.647Z,45.97
2022-11-01T03:06:00.680Z,50.05
2022-11-01T03:08:35.625Z,44.65
2022-11-01T03:11:17.890Z,37.67
2022-11-01T03:14:06.961Z,40.95
2022-11-01T03:17:00.630Z,42.65
2022-11-01T03:19:46.481Z,41.63
2022-11-01T03:22:21.348Z,47.53
2022-11-01T03:25:39.330Z,41.03
2022-11-01T03:28:09.615Z,44.65
2022-11-01T03:30:44.439Z,46.03
2022-11-01T03:33:17.193Z,41.40
2022-11-01T03:35:50.412Z,71.10
2022-11-01T03:38:29.084Z,63.97
2022-11-01T03:41:11.474Z,43.72
2022-11-01T03:43:40.615Z,39.45
2022-11-01T03:46:09.585Z,39.10
2022-11-01T03:48:41.361Z,42.83
2022-11-01T03:51:08.863Z,53.38
2022-11-01T03:53:36.098Z,47.25
2022-11-01T03:56:03.653Z,56.03
2022-11-01T03:58:41.969Z,47.08
2022-11-01T04:01:12.745Z,51.05
2022-11-01T04:03:40.537Z,42.80
2022-11-01T04:06:08.477Z,45.13
2022-11-01T04:08:37.027Z,50.40
2022-11-01T04:11:05.361Z,45.55
2022-11-01T04:13:32.744Z,42.30
2022-11-01T04:16:18.844Z,39.03
2022-11-01T04:19:04.700Z,38.60
2022-11-01T04:21:32.849Z,40.97
2022-11-01T04:24:00.123Z,34.28
2022-11-01T04:26:27.585Z,32.58
2022-11-01T04:28:57.744Z,25.25
2022-11-01T04:31:26.770Z,27.30
2022-11-01T04:33:56.366Z,19.55
2022-11-01T04:36:25.049Z,21.75
2022-11-01T04:38:57.981Z,23.42
2022-11-01T04:41:29.265Z,21.48
2022-11-01T04:44:00.169Z,22.23
2022-11-01T04:46:34.251Z,19.20
2022-11-01T04:49:01.634Z,21.75
2022-11-01T04:51:29.230Z,18.45
2022-11-01T04:53:56.487Z,25.80
2022-11-01T04:56:23.869Z,19.15
2022-11-01T04:58:51.022Z,24.05
2022-11-01T05:01:18.466Z,21.83
2022-11-01T05:03:47.892Z,21.42
2022-11-01T05:06:15.295Z,19.27
2022-11-01T05:08:42.831Z,18.00
2022-11-01T05:11:10.198Z,18.83
2022-11-01T05:13:37.459Z,24.85
2022-11-01T05:16:18.999Z,21.48
2022-11-01T05:18:47.314Z,19.67
2022-11-01T05:21:14.940Z,23.73
2022-11-01T05:23:42.170Z,24.45
2022-11-01T05:26:10.150Z,24.58
2022-11-01T05:28:37.412Z,25.52
2022-11-01T05:31:05.403Z,24.35
2022-11-01T05:33:32.566Z,27.73
2022-11-01T05:36:02.018Z,26.65
2022-11-01T05:38:29.445Z,33.22
2022-11-01T05:40:56.786Z,31.88
2022-11-01T05:43:23.927Z,31.08
2022-11-01T05:45:51.389Z,30.60
2022-11-01T05:48:18.639Z,26.23
2022-11-01T05:50:47.048Z,28.25
2022-11-01T05:53:15.097Z,27.08
2022-11-01T05:55:42.514Z,23.23
2022-11-01T05:58:09.697Z,20.30
2022-11-01T06:00:37.326Z,21.38
2022-11-01T06:03:05.890Z,23.15
2022-11-01T06:05:34.232Z,20.60
2022-11-01T06:08:03.146Z,20.33
2022-11-01T06:10:32.104Z,19.60
2022-11-01T06:12:59.808Z,23.98
2022-11-01T06:15:28.330Z,24.42
2022-11-01T06:17:58.022Z,25.90
2022-11-01T06:20:32.762Z,27.38
2022-11-01T06:23:00.720Z,22.20
2022-11-01T06:25:28.855Z,25.52
2022-11-01T06:27:56.244Z,20.45
2022-11-01T06:30:23.570Z,22.50
2022-11-01T06:32:50.783Z,22.58
2022-11-01T06:35:18.557Z,19.63
2022-11-01T06:37:46.855Z,18.75
2022-11-01T06:40:14.360Z,18.63
2022-11-01T06:42:46.417Z,16.77
2022-11-01T06:45:14.968Z,17.38
2022-11-01T06:47:48.068Z,17.13
2022-11-01T06:50:17.149Z,15.52
2022-11-01T06:52:44.353Z,18.45
2022-11-01T06:55:11.723Z,18.20
2022-11-01T06:57:38.895Z,16.13
2022-11-01T07:00:08.201Z,17.50
2022-11-01T07:02:36.554Z,16.52
2022-11-01T07:05:04.226Z,13.65
2022-11-01T07:07:31.510Z,15.32
2022-11-01T07:09:58.929Z,17.38
2022-11-01T07:12:26.091Z,15.70
2022-11-01T07:14:53.443Z,16.67
2022-11-01T07:17:20.666Z,18.20
2022-11-01T07:19:48.012Z,17.70
2022-11-01T07:22:15.242Z,15.00
2022-11-01T07:24:42.682Z,17.70
2022-11-01T07:27:09.871Z,16.60
2022-11-01T07:29:37.811Z,17.17
2022-11-01T07:32:05.259Z,16.70
2022-11-01T07:34:32.666Z,14.52
2022-11-01T07:36:59.917Z,18.60
2022-11-01T07:39:27.259Z,15.40
2022-11-01T07:41:54.611Z,18.00
2022-11-01T07:44:22.230Z,14.88
2022-11-01T07:46:49.543Z,18.50
2022-11-01T07:49:16.948Z,14.52
2022-11-01T07:51:44.115Z,16.00
2022-11-01T07:54:11.958Z,18.10
2022-11-01T07:56:39.118Z,16.92
2022-11-01T07:59:08.020Z,15.60
2022-11-01T08:01:35.354Z,15.32
2022-11-01T08:04:03.131Z,14.25
2022-11-01T08:06:30.324Z,14.73
2022-11-01T08:08:57.726Z,13.68
2022-11-01T08:11:24.958Z,13.20
2022-11-01T08:13:52.373Z,11.77
2022-11-01T08:16:19.595Z,12.10
2022-11-01T08:18:47.286Z,11.82
2022-11-01T08:21:18.842Z,10.43
2022-11-01T08:23:47.174Z,11.82
2022-11-01T08:26:14.953Z,9.50
2022-11-01T08:28:42.941Z,9.38
2022-11-01T08:31:12.149Z,11.23
2022-11-01T08:33:39.623Z,12.30
2022-11-01T08:36:06.883Z,9.85
2022-11-01T08:38:34.418Z,10.65
2022-11-01T08:41:01.702Z,11.45
2022-11-01T08:43:29.550Z,8.85
2022-11-01T08:46:00.095Z,9.13
2022-11-01T08:48:27.517Z,9.95
2022-11-01T08:50:54.669Z,8.05
2022-11-01T08:53:22.632Z,10.50
2022-11-01T08:55:57.941Z,10.40
2022-11-01T08:58:25.598Z,8.65
2022-11-01T09:00:53.001Z,10.23
2022-11-01T09:03:20.530Z,8.52
2022-11-01T09:05:47.770Z,11.27
2022-11-01T09:08:15.255Z,9.70
2022-11-01T09:10:42.474Z,9.35
2022-11-01T09:13:09.872Z,11.57
2022-11-01T09:15:37.058Z,11.27
2022-11-01T09:18:07.455Z,9.88
2022-11-01T09:20:34.814Z,8.90
2022-11-01T09:23:02.560Z,9.85
2022-11-01T09:25:30.194Z,8.90
2022-11-01T09:27:58.073Z,8.63
2022-11-01T09:30:26.616Z,9.52
2022-11-01T09:32:54.268Z,8.98
2022-11-01T09:35:21.604Z,8.93
2022-11-01T09:37:49.043Z,9.07
2022-11-01T09:40:16.890Z,10.57
2022-11-01T09:42:46.460Z,9.20
2022-11-01T09:45:23.376Z,9.68
2022-11-01T09:47:56.174Z,8.48
2022-11-01T09:50:34.499Z,6.88
2022-11-01T09:53:08.923Z,9.45
2022-11-01T09:56:04.491Z,9.82
2022-11-01T09:59:17.879Z,7.15
2022-11-01T10:02:16.739Z,11.45
2022-11-01T10:05:18.900Z,9.05
2022-11-01T10:08:15.828Z,10.40
2022-11-01T10:11:25.398Z,10.02
2022-11-01T10:14:14.460Z,7.53
2022-11-01T10:16:59.152Z,9.38
2022-11-01T10:19:33.198Z,13.50
2022-11-01T10:22:12.299Z,10.90
2022-11-01T10:25:02.589Z,8.15
2022-11-01T10:27:42.046Z,9.65
2022-11-01T10:30:18.229Z,9.95
2022-11-01T10:33:35.615Z,8.52
2022-11-01T10:36:34.760Z,12.02
2022-11-01T10:42:23.698Z,9.95
2022-11-01T10:44:58.461Z,12.98
2022-11-01T10:47:28.092Z,7.40
2022-11-01T10:50:06.567Z,8.55
2022-11-01T10:53:00.141Z,7.82
2022-11-01T10:55:51.155Z,12.40
2022-11-01T10:58:41.662Z,8.18
2022-11-01T11:01:20.169Z,10.15
2022-11-01T11:03:49.545Z,8.25
2022-11-01T11:06:17.501Z,7.93
2022-11-01T11:08:54.629Z,9.90
2022-11-01T11:11:36.124Z,7.65
2022-11-01T11:14:09.992Z,6.80
2022-11-01T11:16:55.882Z,9.05
2022-11-01T11:19:39.777Z,10.32
2022-11-01T11:22:09.653Z,7.78
2022-11-01T11:24:43.965Z,8.32
2022-11-01T11:27:33.753Z,8.13
2022-11-01T11:30:08.532Z,7.22
2022-11-01T11:32:39.556Z,8.23
2022-11-01T11:35:19.651Z,9.85
2022-11-01T11:37:58.695Z,9.05
2022-11-01T11:40:43.397Z,9.38
2022-11-01T11:43:26.027Z,7.78
2022-11-01T11:46:23.772Z,8.13
2022-11-01T11:48:59.194Z,7.38
2022-11-01T11:51:29.979Z,7.88
2022-11-01T11:54:32.443Z,9.48
2022-11-01T11:57:15.971Z,10.18
2022-11-01T12:02:35.342Z,7.30
2022-11-01T12:05:09.116Z,11.32
2022-11-01T12:07:47.325Z,9.07
2022-11-01T12:10:41.093Z,7.93
2022-11-01T12:13:41.330Z,11.32
2022-11-01T12:19:01.835Z,16.13
2022-11-01T12:21:40.936Z,9.52
2022-11-01T12:24:50.866Z,8.07
2022-11-01T12:27:24.558Z,12.55
2022-11-01T12:29:59.733Z,9.90
2022-11-01T12:32:54.983Z,11.55
2022-11-01T12:35:38.202Z,10.80
2022-11-01T12:38:46.149Z,11.18
2022-11-01T12:41:26.284Z,9.68
2022-11-01T12:44:18.534Z,10.73
2022-11-01T12:47:00.797Z,9.50
2022-11-01T12:49:55.797Z,10.30
2022-11-01T12:52:43.534Z,11.68
2022-11-01T12:55:38.402Z,14.23
2022-11-01T12:58:13.131Z,17.55
2022-11-01T13:00:59.124Z,13.20
2022-11-01T13:03:48.276Z,12.60
2022-11-01T13:06:42.561Z,10.32
2022-11-01T13:09:53.317Z,9.50
2022-11-01T13:12:52.976Z,13.38
2022-11-01T13:15:25.715Z,10.90
2022-11-01T13:18:05.869Z,13.30
2022-11-01T13:20:58.673Z,12.68
2022-11-01T13:23:51.118Z,10.95
2022-11-01T13:26:21.081Z,9.52
2022-11-01T13:29:24.296Z,7.93
2022-11-01T13:31:59.208Z,11.07
2022-11-01T13:34:57.392Z,9.13
2022-11-01T13:37:33.549Z,7.72
2022-11-01T13:40:35.938Z,9.65
2022-11-01T13:43:15.547Z,9.32
2022-11-01T13:45:51.527Z,9.45
2022-11-01T13:48:47.052Z,11.77
2022-11-01T13:51:38.669Z,11.00
2022-11-01T13:54:32.245Z,11.82
2022-11-01T13:57:14.970Z,10.55
2022-11-01T13:59:45.160Z,12.02
2022-11-01T14:02:27.605Z,11.65
2022-11-01T14:05:13.585Z,10.82
2022-11-01T14:07:44.320Z,11.52
2022-11-01T14:10:31.431Z,12.25
2022-11-01T14:13:08.110Z,10.73
2022-11-01T14:16:28.216Z,13.02
2022-11-01T14:19:02.825Z,11.65
2022-11-01T14:21:53.484Z,14.95
2022-11-01T14:24:34.864Z,13.00
2022-11-01T14:27:22.918Z,13.93
2022-11-01T14:29:52.890Z,11.43
2022-11-01T14:32:27.991Z,11.35
2022-11-01T14:35:20.967Z,12.93
2022-11-01T14:37:52.897Z,12.88
2022-11-01T14:40:47.188Z,10.93
2022-11-01T14:43:42.827Z,17.63
2022-11-01T14:46:19.297Z,11.88
2022-11-01T14:49:40.127Z,15.25
2022-11-01T14:52:27.416Z,14.90
2022-11-01T14:55:06.432Z,13.95
2022-11-01T14:57:35.680Z,16.85
2022-11-01T15:00:28.723Z,14.45
2022-11-01T15:05:32.360Z,15.88
2022-11-01T15:08:00.343Z,12.93
2022-11-01T15:10:28.671Z,15.63
2022-11-01T15:13:02.342Z,18.05
2022-11-01T15:15:35.365Z,22.90
2022-11-01T15:18:15.926Z,19.35
2022-11-01T15:20:51.568Z,19.48
2022-11-01T15:23:37.169Z,19.10
2022-11-01T15:26:15.475Z,22.85
2022-11-01T15:28:52.358Z,21.23
2022-11-01T15:31:21.744Z,21.77
2022-11-01T15:34:04.849Z,20.35
2022-11-01T15:36:39.404Z,24.25
2022-11-01T15:39:29.464Z,19.73
2022-11-01T15:41:57.627Z,18.48
2022-11-01T15:44:29.758Z,19.27
2022-11-01T15:47:03.521Z,22.75
2022-11-01T15:49:42.805Z,21.75
2022-11-01T15:52:33.241Z,21.60
2022-11-01T15:55:09.356Z,19.88
2022-11-01T15:57:50.798Z,20.25
2022-11-01T16:00:22.983Z,20.65
2022-11-01T16:03:27.550Z,22.17
2022-11-01T16:06:07.959Z,21.58
2022-11-01T16:08:51.227Z,22.60
2022-11-01T16:11:24.187Z,20.42
2022-11-01T16:14:00.993Z,20.48
2022-11-01T16:16:29.165Z,21.10
2022-11-01T16:18:56.432Z,21.55
2022-11-01T16:21:31.014Z,20.10
2022-11-01T16:24:21.466Z,25.88
2022-11-01T16:27:04.935Z,25.52
2022-11-01T16:29:47.989Z,24.73
2022-11-01T16:32:35.981Z,28.08
2022-11-01T16:35:47.296Z,24.80
2022-11-01T16:38:32.692Z,21.90
2022-11-01T16:41:04.507Z,25.33
2022-11-01T16:43:35.929Z,26.02
2022-11-01T16:46:05.713Z,25.15
2022-11-01T16:48:49.011Z,29.67
2022-11-01T16:51:16.243Z,28.45
2022-11-01T16:53:43.879Z,31.45
2022-11-01T16:56:38.228Z,29.77
2022-11-01T16:59:23.677Z,30.98
2022-11-01T17:01:54.970Z,32.78
2022-11-01T17:04:23.194Z,29.35
2022-11-01T17:06:51.932Z,33.33
2022-11-01T17:09:22.767Z,30.92
2022-11-01T17:11:51.841Z,27.40
2022-11-01T17:14:21.537Z,28.63
2022-11-01T17:16:52.153Z,26.00
2022-11-01T17:19:31.173Z,25.27
2022-11-01T17:22:04.197Z,24.55
2022-11-01T17:24:33.507Z,22.45
2022-11-01T17:27:05.341Z,22.38
2022-11-01T17:29:33.603Z,31.80
2022-11-01T17:32:08.969Z,27.80
2022-11-01T17:34:38.112Z,25.13
2022-11-01T17:37:06.448Z,28.73
2022-11-01T17:39:34.716Z,28.00
2022-11-01T17:42:02.232Z,28.58
2022-11-01T17:44:29.747Z,24.55
2022-11-01T17:46:57.022Z,25.65
2022-11-01T17:49:24.794Z,29.77
2022-11-01T17:51:54.949Z,26.55
2022-11-01T17:56:51.713Z,29.85
2022-11-01T17:59:19.691Z,29.80
2022-11-01T18:01:47.377Z,24.83
2022-11-01T18:04:15.474Z,25.70
2022-11-01T18:06:43.879Z,24.48
2022-11-01T18:09:24.750Z,28.58
2022-11-01T18:12:23.888Z,30.67
2022-11-01T18:15:08.935Z,33.30
2022-11-01T18:18:16.413Z,28.85
2022-11-01T18:21:31.556Z,34.40
2022-11-01T18:24:03.867Z,40.67
2022-11-01T18:26:31.428Z,30.60
2022-11-01T18:29:24.720Z,31.63
2022-11-01T18:32:09.920Z,26.85
2022-11-01T18:34:49.670Z,26.45
2022-11-01T18:37:32.163Z,25.88
2022-11-01T18:40:25.835Z,24.63
2022-11-01T18:42:55.106Z,28.08
2022-11-01T18:45:33.104Z,29.00
2022-11-01T18:48:28.718Z,34.97
2022-11-01T18:51:05.247Z,33.90
2022-11-01T18:53:34.719Z,32.67
2022-11-01T18:56:21.517Z,32.67
2022-11-01T18:58:52.500Z,38.58
2022-11-01T19:01:33.676Z,36.78
2022-11-01T19:04:19.470Z,31.73
2022-11-01T19:06:46.772Z,33.15
2022-11-01T19:09:33.304Z,33.88
2022-11-01T19:12:55.312Z,34.22
2022-11-01T19:15:26.049Z,35.83
2022-11-01T19:17:59.643Z,32.25
2022-11-01T19:20:35.579Z,36.80
2022-11-01T19:23:11.189Z,41.13
2022-11-01T19:25:38.917Z,36.13
2022-11-01T19:28:46.034Z,38.22
2022-11-01T19:31:36.538Z,41.08
2022-11-01T19:34:12.175Z,40.42
2022-11-01T19:36:44.456Z,44.15
2022-11-01T19:39:27.926Z,35.85
2022-11-01T19:42:12.485Z,37.63
2022-11-01T19:44:39.655Z,35.67
2022-11-01T19:47:39.476Z,38.30
2022-11-01T19:50:16.101Z,40.97
2022-11-01T19:52:47.455Z,42.38
2022-11-01T19:55:37.081Z,44.05
2022-11-01T19:58:22.644Z,41.15
2022-11-01T20:00:50.743Z,48.55
2022-11-01T20:03:34.417Z,39.97
2022-11-01T20:06:02.012Z,40.88
2022-11-01T20:08:35.466Z,35.75
2022-11-01T20:11:02.700Z,35.67
2022-11-01T20:13:30.108Z,36.90
2022-11-01T20:15:57.326Z,30.55
2022-11-01T20:18:24.775Z,29.90
2022-11-01T20:20:53.945Z,31.15
2022-11-01T20:23:26.270Z,31.42
2022-11-01T20:25:55.272Z,31.63
2022-11-01T20:28:22.716Z,31.00
2022-11-01T20:30:50.008Z,32.35
2022-11-01T20:33:17.842Z,31.10
2022-11-01T20:35:45.018Z,32.28
2022-11-01T20:38:12.477Z,33.53
2022-11-01T20:40:39.763Z,32.53
2022-11-01T20:43:07.667Z,35.22
2022-11-01T20:45:35.214Z,37.40
2022-11-01T20:48:03.834Z,33.63
2022-11-01T20:50:31.065Z,30.67
2022-11-01T20:52:58.660Z,38.67
2022-11-01T20:55:25.858Z,37.22
2022-11-01T20:57:53.793Z,38.03
2022-11-01T21:00:21.319Z,36.90
2022-11-01T21:02:50.183Z,38.45
2022-11-01T21:05:31.077Z,36.25
2022-11-01T21:08:10.495Z,38.20
2022-11-01T21:10:41.137Z,36.53
2022-11-01T21:13:23.963Z,38.05
2022-11-01T21:15:53.418Z,36.80
2022-11-01T21:18:20.745Z,43.97
2022-11-01T21:20:49.438Z,41.65
2022-11-01T21:23:28.647Z,42.97
2022-11-01T21:25:59.724Z,41.92
2022-11-01T21:28:32.997Z,41.45
2022-11-01T21:31:15.308Z,45.08
2022-11-01T21:34:10.209Z,47.10
2022-11-01T21:36:53.366Z,42.90
2022-11-01T21:39:32.942Z,46.85
2022-11-01T21:42:29.542Z,40.00
2022-11-01T21:44:57.335Z,46.30
2022-11-01T21:47:32.852Z,47.38
2022-11-01T21:50:00.287Z,46.55
2022-11-01T21:52:27.486Z,40.97
2022-11-01T21:54:54.900Z,42.00
2022-11-01T21:57:22.089Z,44.42
2022-11-01T21:59:49.513Z,45.63
2022-11-01T22:02:16.913Z,43.40
2022-11-01T22:04:45.517Z,40.13
2022-11-01T22:07:12.774Z,43.30
2022-11-01T22:09:40.317Z,46.40
2022-11-01T22:12:08.199Z,40.47
2022-11-01T22:14:35.685Z,43.53
2022-11-01T22:17:03.205Z,47.58
2022-11-01T22:19:30.590Z,45.10
2022-11-01T22:21:57.902Z,48.72
2022-11-01T22:24:25.761Z,43.75
2022-11-01T22:26:53.134Z,45.25
2022-11-01T22:29:20.543Z,44.15
2022-11-01T22:31:47.824Z,42.78
2022-11-01T22:34:17.355Z,36.85
2022-11-01T22:36:44.649Z,47.42
2022-11-01T22:39:27.836Z,39.13
2022-11-01T22:41:55.136Z,37.47
2022-11-01T22:44:32.522Z,40.17
2022-11-01T22:47:02.152Z,40.33
2022-11-01T22:50:14.299Z,40.83
2022-11-01T22:52:45.178Z,37.17
2022-11-01T22:55:15.467Z,45.38
2022-11-01T22:57:57.754Z,44.95
2022-11-01T23:00:36.335Z,44.78
2022-11-01T23:03:21.806Z,41.08
2022-11-01T23:06:02.203Z,37.70
2022-11-01T23:08:33.481Z,44.42
2022-11-01T23:11:02.212Z,42.10
2022-11-01T23:13:52.600Z,40.72
2022-11-01T23:16:41.665Z,44.30
2022-11-01T23:19:13.367Z,45.13
2022-11-01T23:21:40.837Z,46.45
2022-11-01T23:24:08.597Z,44.17
2022-11-01T23:26:36.036Z,46.45
2022-11-01T23:29:03.458Z,45.28
2022-11-01T23:31:30.926Z,49.22
2022-11-01T23:33:58.166Z,46.85
2022-11-01T23:36:30.807Z,45.08
2022-11-01T23:39:04.501Z,53.50
2022-11-01T23:41:52.419Z,47.15
2022-11-01T23:44:39.414Z,48.80
2022-11-01T23:47:41.635Z,51.03
2022-11-01T23:50:20.305Z,51.28
2022-11-01T23:53:02.218Z,49.13
2022-11-01T23:55:38.466Z,51.25
2022-11-01T23:58:13.226Z,56.00
